createdAt,value
2023-01-15T00:00:09.564Z,101220.41
2023-01-15T00:01:26.534Z,101226.44
2023-01-15T00:02:31.741Z,101229.09
2023-01-15T00:03:34.845Z,101230.00
2023-01-15T00:04:37.653Z,101227.34
2023-01-15T00:05:40.399Z,101228.22
2023-01-15T00:06:47.268Z,101235.12
2023-01-15T00:07:50.395Z,101228.22
2023-01-15T00:08:54.834Z,101231.62
2023-01-15T00:09:58.163Z,101234.19
2023-01-15T00:11:06.798Z,101229.84
2023-01-15T00:12:09.917Z,101229.84
2023-01-15T00:13:12.822Z,101231.59
2023-01-15T00:14:15.653Z,101226.41
2023-01-15T00:15:18.605Z,101229.84
2023-01-15T00:16:23.611Z,101227.25
2023-01-15T00:17:26.920Z,101229.91
2023-01-15T00:18:30.505Z,101228.94
2023-01-15T00:19:33.354Z,101220.25
2023-01-15T00:20:36.257Z,101227.97
2023-01-15T00:21:39.534Z,101227.19
2023-01-15T00:22:42.565Z,101229.78
2023-01-15T00:24:04.459Z,101225.44
2023-01-15T00:25:26.191Z,101232.44
2023-01-15T00:26:49.936Z,101233.37
2023-01-15T00:27:53.248Z,101230.91
2023-01-15T00:28:58.903Z,101231.69
2023-01-15T00:30:01.699Z,101229.09
2023-01-15T00:31:04.819Z,101224.72
2023-01-15T00:32:08.715Z,101225.56
2023-01-15T00:33:12.092Z,101227.34
2023-01-15T00:34:15.761Z,101220.50
2023-01-15T00:35:22.912Z,101227.41
2023-01-15T00:36:26.130Z,101227.34
2023-01-15T00:37:28.913Z,101217.75
2023-01-15T00:38:35.682Z,101223.91
2023-01-15T00:39:38.540Z,101219.56
2023-01-15T00:40:41.266Z,101218.69
2023-01-15T00:41:44.619Z,101225.66
2023-01-15T00:42:54.639Z,101223.00
2023-01-15T00:43:58.648Z,101220.47
2023-01-15T00:45:08.349Z,101218.72
2023-01-15T00:46:11.386Z,101219.63
2023-01-15T00:47:17.172Z,101216.22
2023-01-15T00:48:20.291Z,101221.34
2023-01-15T00:49:23.865Z,101213.63
2023-01-15T00:50:27.778Z,101210.19
2023-01-15T00:51:30.462Z,101211.12
2023-01-15T00:52:33.530Z,101216.31
2023-01-15T00:53:36.269Z,101207.69
2023-01-15T00:54:39.511Z,101211.94
2023-01-15T00:55:44.250Z,101199.06
2023-01-15T00:56:46.983Z,101212.78
2023-01-15T00:57:49.895Z,101201.59
2023-01-15T00:58:54.755Z,101210.34
2023-01-15T00:59:58.408Z,101205.94
2023-01-15T01:01:01.437Z,101201.69
2023-01-15T01:02:04.358Z,101206.91
2023-01-15T01:03:07.527Z,101199.09
2023-01-15T01:04:10.348Z,101197.41
2023-01-15T01:05:13.368Z,101197.41
2023-01-15T01:06:17.177Z,101193.91
2023-01-15T01:07:19.836Z,101181.84
2023-01-15T01:08:23.075Z,101186.94
2023-01-15T01:09:25.982Z,101179.19
2023-01-15T01:10:29.428Z,101186.13
2023-01-15T01:11:34.590Z,101181.78
2023-01-15T01:12:37.854Z,101181.84
2023-01-15T01:13:40.847Z,101176.63
2023-01-15T01:14:44.701Z,101171.41
2023-01-15T01:15:47.651Z,101180.88
2023-01-15T01:16:50.414Z,101184.31
2023-01-15T01:17:53.171Z,101179.28
2023-01-15T01:18:58.760Z,101178.44
2023-01-15T01:20:01.572Z,101176.59
2023-01-15T01:21:05.122Z,101181.72
2023-01-15T01:22:07.803Z,101170.56
2023-01-15T01:23:10.480Z,101173.94
2023-01-15T01:24:21.436Z,101169.59
2023-01-15T01:25:24.166Z,101173.94
2023-01-15T01:26:29.463Z,101171.56
2023-01-15T01:27:32.627Z,101177.59
2023-01-15T01:28:36.315Z,101175.91
2023-01-15T01:29:39.199Z,101176.81
2023-01-15T01:30:42.143Z,101157.78
2023-01-15T01:31:48.532Z,101163.81
2023-01-15T01:32:51.334Z,101165.53
2023-01-15T01:33:56.552Z,101173.41
2023-01-15T01:34:59.573Z,101171.66
2023-01-15T01:36:02.486Z,101174.31
2023-01-15T01:37:05.722Z,101177.75
2023-01-15T01:38:09.453Z,101169.91
2023-01-15T01:39:16.312Z,101175.06
2023-01-15T01:40:20.189Z,101174.19
2023-01-15T01:41:25.141Z,101176.91
2023-01-15T01:42:30.314Z,101168.16
2023-01-15T01:43:52.045Z,101169.06
2023-01-15T01:45:01.142Z,101169.91
2023-01-15T01:46:04.034Z,101163.88
2023-01-15T01:47:16.100Z,101169.00
2023-01-15T01:48:25.298Z,101166.41
2023-01-15T01:49:28.068Z,101170.72
2023-01-15T01:50:32.743Z,101169.88
2023-01-15T01:51:45.960Z,101168.09
2023-01-15T01:52:54.307Z,101175.00
2023-01-15T01:54:00.589Z,101173.28
2023-01-15T01:55:04.795Z,101175.91
2023-01-15T01:56:10.308Z,101164.78
2023-01-15T01:57:15.896Z,101164.78
2023-01-15T01:58:22.503Z,101176.91
2023-01-15T01:59:26.955Z,101175.16
2023-01-15T02:00:31.705Z,101177.72
2023-01-15T02:01:35.364Z,101174.31
2023-01-15T02:02:39.850Z,101169.13
2023-01-15T02:03:43.607Z,101173.41
2023-01-15T02:04:46.816Z,101174.34
2023-01-15T02:05:54.256Z,101170.88
2023-01-15T02:07:00.203Z,101170.03
2023-01-15T02:08:03.067Z,101165.72
2023-01-15T02:09:06.510Z,101175.97
2023-01-15T02:10:15.437Z,101178.59
2023-01-15T02:11:21.405Z,101175.16
2023-01-15T02:12:38.388Z,101168.31
2023-01-15T02:13:46.562Z,101172.59
2023-01-15T02:15:15.320Z,101165.72
2023-01-15T02:16:26.758Z,101170.91
2023-01-15T02:17:49.368Z,101173.47
2023-01-15T02:19:08.240Z,101176.94
2023-01-15T02:20:28.897Z,101168.28
2023-01-15T02:21:50.546Z,101170.91
2023-01-15T02:22:59.387Z,101176.91
2023-01-15T02:24:07.665Z,101169.13
2023-01-15T02:25:23.627Z,101170.00
2023-01-15T02:26:49.088Z,101161.38
2023-01-15T02:28:01.706Z,101164.03
2023-01-15T02:29:13.635Z,101160.47
2023-01-15T02:30:24.832Z,101161.38
2023-01-15T02:31:30.173Z,101158.78
2023-01-15T02:32:41.007Z,101157.09
2023-01-15T02:33:55.382Z,101164.88
2023-01-15T02:35:06.161Z,101160.50
2023-01-15T02:36:15.184Z,101154.44
2023-01-15T02:37:25.534Z,101151.91
2023-01-15T02:38:34.529Z,101150.16
2023-01-15T02:39:42.665Z,101151.06
2023-01-15T02:40:48.473Z,101157.94
2023-01-15T02:41:57.252Z,101150.09
2023-01-15T02:43:01.261Z,101152.72
2023-01-15T02:44:07.037Z,101151.06
2023-01-15T02:45:12.644Z,101147.56
2023-01-15T02:46:18.536Z,101151.94
2023-01-15T02:47:27.006Z,101149.31
2023-01-15T02:48:38.921Z,101149.25
2023-01-15T02:49:44.320Z,101144.94
2023-01-15T02:51:01.764Z,101151.97
2023-01-15T02:52:07.955Z,101140.66
2023-01-15T02:53:17.968Z,101138.13
2023-01-15T02:54:23.886Z,101141.69
2023-01-15T02:55:35.298Z,101134.66
2023-01-15T02:56:42.049Z,101136.34
2023-01-15T02:57:47.863Z,101135.53
2023-01-15T02:58:56.518Z,101132.94
2023-01-15T03:00:04.104Z,101127.81
2023-01-15T03:01:14.697Z,101130.44
2023-01-15T03:02:23.702Z,101125.22
2023-01-15T03:03:44.790Z,101126.06
2023-01-15T03:04:54.998Z,101137.28
2023-01-15T03:06:00.425Z,101127.88
2023-01-15T03:07:37.377Z,101127.06
2023-01-15T03:08:41.100Z,101124.41
2023-01-15T03:09:44.901Z,101126.13
2023-01-15T03:11:08.075Z,101110.59
2023-01-15T03:12:16.240Z,101117.44
2023-01-15T03:13:39.683Z,101118.44
2023-01-15T03:14:54.842Z,101114.03
2023-01-15T03:16:28.813Z,101110.66
2023-01-15T03:17:48.717Z,101113.25
2023-01-15T03:18:56.876Z,101104.63
2023-01-15T03:20:17.475Z,101112.34
2023-01-15T03:21:31.912Z,101114.00
2023-01-15T03:22:39.291Z,101115.78
2023-01-15T03:23:47.723Z,101109.75
2023-01-15T03:25:29.689Z,101112.28
2023-01-15T03:26:33.297Z,101103.66
2023-01-15T03:27:36.255Z,101101.22
2023-01-15T03:28:44.286Z,101099.50
2023-01-15T03:29:51.288Z,101094.19
2023-01-15T03:30:54.677Z,101082.28
2023-01-15T03:32:00.126Z,101092.66
2023-01-15T03:33:03.148Z,101085.66
2023-01-15T03:34:07.380Z,101083.97
2023-01-15T03:35:44.746Z,101094.37
2023-01-15T03:36:47.920Z,101090.94
2023-01-15T03:37:51.004Z,101092.66
2023-01-15T03:38:58.952Z,101092.62
2023-01-15T03:40:02.371Z,101095.19
2023-01-15T03:41:10.724Z,101090.91
2023-01-15T03:42:28.681Z,101089.94
2023-01-15T03:43:56.014Z,101088.31
2023-01-15T03:45:05.013Z,101083.12
2023-01-15T03:46:17.595Z,101096.12
2023-01-15T03:47:48.558Z,101064.47
2023-01-15T03:49:10.412Z,101095.44
2023-01-15T03:50:23.591Z,101103.31
2023-01-15T03:51:39.800Z,101087.81
2023-01-15T03:53:22.087Z,101086.06
2023-01-15T03:54:39.117Z,101088.66
2023-01-15T03:56:04.317Z,101087.81
2023-01-15T03:58:00.815Z,101093.84
2023-01-15T03:59:12.917Z,101094.66
2023-01-15T04:00:22.777Z,101093.78
2023-01-15T04:01:35.586Z,101098.97
2023-01-15T04:02:40.976Z,101093.78
2023-01-15T04:03:45.176Z,101099.03
2023-01-15T04:04:49.689Z,101088.66
2023-01-15T04:05:57.558Z,101093.03
2023-01-15T04:07:03.017Z,101089.66
2023-01-15T04:08:09.449Z,101075.78
2023-01-15T04:09:17.251Z,101084.47
2023-01-15T04:10:21.058Z,101075.78
2023-01-15T04:11:26.975Z,101078.38
2023-01-15T04:12:32.933Z,101081.72
2023-01-15T04:13:36.030Z,101088.72
2023-01-15T04:14:39.929Z,101089.50
2023-01-15T04:15:43.116Z,101093.78
2023-01-15T04:16:46.193Z,101094.78
2023-01-15T04:17:49.688Z,101080.87
2023-01-15T04:18:53.520Z,101085.22
2023-01-15T04:19:56.564Z,101085.19
2023-01-15T04:20:59.956Z,101084.28
2023-01-15T04:22:03.525Z,101074.84
2023-01-15T04:23:06.999Z,101076.59
2023-01-15T04:24:09.942Z,101072.25
2023-01-15T04:25:12.827Z,101070.66
2023-01-15T04:26:16.290Z,101072.34
2023-01-15T04:27:19.422Z,101068.84
2023-01-15T04:28:24.951Z,101068.03
2023-01-15T04:29:28.784Z,101078.38
2023-01-15T04:30:31.772Z,101074.03
2023-01-15T04:31:36.212Z,101067.06
2023-01-15T04:32:39.176Z,101073.22
2023-01-15T04:33:42.344Z,101067.13
2023-01-15T04:34:45.602Z,101065.47
2023-01-15T04:35:48.270Z,101073.19
2023-01-15T04:36:51.055Z,101063.72
2023-01-15T04:37:57.919Z,101068.13
2023-01-15T04:39:05.457Z,101068.16
2023-01-15T04:40:09.454Z,101068.16
2023-01-15T04:41:33.905Z,101057.00
2023-01-15T04:42:55.258Z,101067.34
2023-01-15T04:44:06.990Z,101067.34
2023-01-15T04:45:10.573Z,101070.81
2023-01-15T04:46:13.668Z,101066.50
2023-01-15T04:47:16.435Z,101066.47
2023-01-15T04:48:19.414Z,101064.81
2023-01-15T04:49:22.603Z,101059.63
2023-01-15T04:50:26.023Z,101053.59
2023-01-15T04:51:28.719Z,101063.94
2023-01-15T04:52:31.415Z,101046.81
2023-01-15T04:53:34.233Z,101056.38
2023-01-15T04:54:37.061Z,101061.56
2023-01-15T04:55:40.084Z,101065.03
2023-01-15T04:56:50.414Z,101065.03
2023-01-15T04:57:53.414Z,101071.03
2023-01-15T04:59:02.406Z,101063.34
2023-01-15T05:00:05.762Z,101066.84
2023-01-15T05:01:17.345Z,101016.22
2023-01-15T05:02:20.227Z,101070.22
2023-01-15T05:03:22.943Z,101067.63
2023-01-15T05:04:25.742Z,101069.41
2023-01-15T05:05:28.673Z,101066.81
2023-01-15T05:06:32.150Z,101068.53
2023-01-15T05:07:34.819Z,101059.91
2023-01-15T05:08:38.460Z,101078.84
2023-01-15T05:09:41.431Z,101076.28
2023-01-15T05:10:44.135Z,101074.59
2023-01-15T05:11:47.219Z,101070.28
2023-01-15T05:12:49.954Z,101075.47
2023-01-15T05:13:52.741Z,101070.28
2023-01-15T05:14:55.506Z,101078.88
2023-01-15T05:15:58.244Z,101071.97
2023-01-15T05:17:01.278Z,101080.59
2023-01-15T05:18:04.912Z,101078.88
2023-01-15T05:19:10.463Z,101081.47
2023-01-15T05:20:15.013Z,101083.16
2023-01-15T05:21:26.070Z,101087.41
2023-01-15T05:22:29.018Z,101092.59
2023-01-15T05:23:31.759Z,101092.66
2023-01-15T05:24:34.484Z,101090.03
2023-01-15T05:25:37.933Z,101083.09
2023-01-15T05:26:41.245Z,101087.28
2023-01-15T05:27:44.283Z,101087.38
2023-01-15T05:28:48.806Z,101086.53
2023-01-15T05:29:51.457Z,101082.19
2023-01-15T05:30:54.195Z,101081.34
2023-01-15T05:31:57.063Z,101081.31
2023-01-15T05:33:00.052Z,101071.69
2023-01-15T05:34:02.819Z,101075.25
2023-01-15T05:35:05.997Z,101072.62
2023-01-15T05:36:12.543Z,101068.31
2023-01-15T05:37:15.327Z,101081.25
2023-01-15T05:38:18.627Z,101077.00
2023-01-15T05:39:21.825Z,101078.72
2023-01-15T05:40:24.699Z,101070.94
2023-01-15T05:41:46.947Z,101067.53
2023-01-15T05:42:49.663Z,101070.97
2023-01-15T05:43:52.833Z,101065.75
2023-01-15T05:44:55.564Z,101066.59
2023-01-15T05:46:02.250Z,101062.31
2023-01-15T05:47:07.656Z,101059.66
2023-01-15T05:48:10.947Z,101063.94
2023-01-15T05:49:18.729Z,101062.31
2023-01-15T05:50:21.590Z,101063.16
2023-01-15T05:51:24.406Z,101060.56
2023-01-15T05:52:27.156Z,101057.97
2023-01-15T05:53:29.901Z,101061.47
2023-01-15T05:54:34.616Z,101054.53
2023-01-15T05:55:37.283Z,101052.81
2023-01-15T05:56:40.907Z,101050.22
2023-01-15T05:57:43.587Z,101045.06
2023-01-15T05:58:47.975Z,101051.09
2023-01-15T05:59:53.353Z,101038.28
2023-01-15T06:00:56.918Z,101057.22
2023-01-15T06:02:00.445Z,101055.44
2023-01-15T06:03:03.172Z,101049.44
2023-01-15T06:04:06.743Z,101053.75
2023-01-15T06:05:09.799Z,101057.22
2023-01-15T06:06:18.081Z,101061.47
2023-01-15T06:07:21.062Z,101054.59
2023-01-15T06:08:24.709Z,101060.66
2023-01-15T06:09:28.171Z,101049.41
2023-01-15T06:10:30.966Z,101054.59
2023-01-15T06:11:33.676Z,101055.34
2023-01-15T06:12:36.986Z,101051.00
2023-01-15T06:13:39.992Z,101046.72
2023-01-15T06:14:42.662Z,101047.53
2023-01-15T06:15:45.784Z,101049.31
2023-01-15T06:16:48.526Z,101049.31
2023-01-15T06:17:51.484Z,101052.78
2023-01-15T06:18:54.838Z,101059.72
2023-01-15T06:19:58.072Z,101056.25
2023-01-15T06:21:09.435Z,101057.16
2023-01-15T06:22:12.118Z,101061.47
2023-01-15T06:23:17.980Z,101064.03
2023-01-15T06:24:21.365Z,101064.03
2023-01-15T06:25:24.041Z,101058.06
2023-01-15T06:26:26.935Z,101057.13
2023-01-15T06:27:30.206Z,101051.09
2023-01-15T06:28:35.329Z,101006.53
2023-01-15T06:29:37.973Z,101050.25
2023-01-15T06:30:40.768Z,101052.00
2023-01-15T06:31:43.829Z,101045.88
2023-01-15T06:32:46.528Z,101053.59
2023-01-15T06:33:50.437Z,101056.28
2023-01-15T06:34:53.119Z,101051.91
2023-01-15T06:35:55.958Z,101057.22
2023-01-15T06:36:58.628Z,101058.94
2023-01-15T06:38:01.371Z,101057.97
2023-01-15T06:39:07.044Z,101046.72
2023-01-15T06:40:10.362Z,101048.41
2023-01-15T06:41:36.225Z,101038.94
2023-01-15T06:42:57.622Z,101045.78
2023-01-15T06:44:18.870Z,101044.16
2023-01-15T06:45:40.674Z,101040.84
2023-01-15T06:47:04.678Z,101044.94
2023-01-15T06:48:16.403Z,101039.75
2023-01-15T06:49:19.917Z,101042.44
2023-01-15T06:50:23.973Z,101042.38
2023-01-15T06:51:27.753Z,101042.34
2023-01-15T06:52:31.531Z,101038.94
2023-01-15T06:53:34.216Z,101045.78
2023-01-15T06:54:36.988Z,101039.75
2023-01-15T06:55:40.058Z,101038.91
2023-01-15T06:56:43.208Z,101037.16
2023-01-15T06:57:45.985Z,101037.16
2023-01-15T06:58:50.167Z,101035.47
2023-01-15T06:59:52.964Z,101033.72
2023-01-15T07:00:56.786Z,101025.12
2023-01-15T07:01:59.569Z,101038.94
2023-01-15T07:03:03.815Z,101031.97
2023-01-15T07:04:06.733Z,101031.16
2023-01-15T07:05:09.819Z,101038.00
2023-01-15T07:06:13.652Z,101027.63
2023-01-15T07:07:18.387Z,101033.75
2023-01-15T07:08:25.969Z,101036.34
2023-01-15T07:09:28.897Z,101025.03
2023-01-15T07:10:31.580Z,101029.31
2023-01-15T07:11:35.531Z,101032.78
2023-01-15T07:12:38.342Z,101034.41
2023-01-15T07:13:40.960Z,101028.38
2023-01-15T07:14:44.259Z,101037.00
2023-01-15T07:15:47.261Z,101040.50
2023-01-15T07:16:51.558Z,101026.63
2023-01-15T07:17:55.463Z,101040.44
2023-01-15T07:18:59.463Z,101037.00
2023-01-15T07:20:02.287Z,101033.56
2023-01-15T07:21:05.205Z,101037.06
2023-01-15T07:22:10.710Z,101032.66
2023-01-15T07:23:14.947Z,101030.19
2023-01-15T07:24:18.966Z,101042.06
2023-01-15T07:25:21.696Z,101032.66
2023-01-15T07:26:24.474Z,101043.03
2023-01-15T07:27:27.446Z,101031.03
2023-01-15T07:28:35.079Z,101035.31
2023-01-15T07:29:38.206Z,101031.03
2023-01-15T07:30:40.868Z,101026.69
2023-01-15T07:31:44.057Z,101023.34
2023-01-15T07:32:47.219Z,101030.19
2023-01-15T07:33:50.217Z,101023.28
2023-01-15T07:34:53.099Z,101019.03
2023-01-15T07:35:56.944Z,101026.78
2023-01-15T07:37:00.114Z,101024.16
2023-01-15T07:38:03.643Z,101022.50
2023-01-15T07:39:08.429Z,101018.22
2023-01-15T07:40:11.871Z,101009.50
2023-01-15T07:41:33.618Z,101009.38
2023-01-15T07:43:09.512Z,101012.03
2023-01-15T07:44:31.457Z,101013.69
2023-01-15T07:46:06.759Z,101011.03
2023-01-15T07:47:34.596Z,101013.69
2023-01-15T07:49:02.722Z,101005.00
2023-01-15T07:50:09.480Z,101004.09
2023-01-15T07:51:15.733Z,100999.66
2023-01-15T07:52:22.681Z,101002.41
2023-01-15T07:53:25.617Z,101006.69
2023-01-15T07:54:29.342Z,100993.63
2023-01-15T07:55:32.460Z,101007.44
2023-01-15T07:56:35.815Z,101010.88
2023-01-15T07:57:38.920Z,101003.09
2023-01-15T07:58:49.282Z,101003.94
2023-01-15T07:59:52.033Z,101004.84
2023-01-15T08:00:55.988Z,101000.56
2023-01-15T08:01:59.344Z,101009.19
2023-01-15T08:03:03.671Z,100998.88
2023-01-15T08:04:06.504Z,101005.75
2023-01-15T08:05:11.656Z,101008.28
2023-01-15T08:06:14.832Z,101002.25
2023-01-15T08:07:17.890Z,101002.16
2023-01-15T08:08:20.981Z,100990.16
2023-01-15T08:09:25.829Z,101000.41
2023-01-15T08:10:28.708Z,100997.00
2023-01-15T08:11:53.360Z,100998.66
2023-01-15T08:13:32.287Z,101002.09
2023-01-15T08:14:53.839Z,100991.72
2023-01-15T08:17:12.560Z,100987.22
2023-01-15T08:18:20.688Z,100986.53
2023-01-15T08:19:29.964Z,100984.00
2023-01-15T08:20:35.077Z,100995.97
2023-01-15T08:21:39.571Z,101001.12
2023-01-15T08:22:44.533Z,100995.09
2023-01-15T08:23:47.772Z,101000.19
2023-01-15T08:24:50.810Z,100986.44
2023-01-15T08:25:53.748Z,100996.75
2023-01-15T08:26:56.513Z,100987.16
2023-01-15T08:28:03.331Z,100984.62
2023-01-15T08:29:08.497Z,100979.47
2023-01-15T08:30:20.335Z,100981.97
2023-01-15T08:31:26.463Z,100988.91
2023-01-15T08:32:29.134Z,100994.03
2023-01-15T08:33:32.960Z,100996.69
2023-01-15T08:34:36.103Z,100999.22
2023-01-15T08:35:38.998Z,100995.66
2023-01-15T08:36:41.815Z,100998.28
2023-01-15T08:37:44.593Z,100996.53
2023-01-15T08:38:50.203Z,100988.63
2023-01-15T08:39:53.342Z,100991.22
2023-01-15T08:40:59.915Z,100996.41
2023-01-15T08:42:02.720Z,100997.38
2023-01-15T08:43:05.787Z,101001.53
2023-01-15T08:44:10.379Z,100998.94
2023-01-15T08:45:13.351Z,100994.59
2023-01-15T08:46:16.488Z,100997.13
2023-01-15T08:47:19.607Z,100997.00
2023-01-15T08:48:23.109Z,100994.44
2023-01-15T08:49:26.421Z,100988.44
2023-01-15T08:50:29.475Z,100997.03
2023-01-15T08:51:33.213Z,100992.84
2023-01-15T08:52:38.132Z,100995.31
2023-01-15T08:53:41.482Z,100997.00
2023-01-15T08:54:44.301Z,100980.59
2023-01-15T08:56:17.624Z,100995.25
2023-01-15T08:57:40.235Z,100988.28
2023-01-15T08:59:06.533Z,100983.16
2023-01-15T09:00:29.360Z,100976.13
2023-01-15T09:01:41.128Z,100974.44
2023-01-15T09:02:43.946Z,100973.56
2023-01-15T09:03:46.902Z,100974.38
2023-01-15T09:04:49.974Z,100969.94
2023-01-15T09:05:52.845Z,100971.78
2023-01-15T09:06:56.071Z,100974.31
2023-01-15T09:07:58.783Z,100977.94
2023-01-15T09:09:01.960Z,100971.84
2023-01-15T09:10:05.260Z,100980.41
2023-01-15T09:11:13.109Z,100976.16
2023-01-15T09:12:16.216Z,100977.84
2023-01-15T09:13:18.965Z,100983.97
2023-01-15T09:14:55.462Z,100987.28
2023-01-15T09:15:44.778Z,100974.44
2023-01-15T09:16:47.482Z,100982.81
2023-01-15T09:17:50.477Z,100974.16
2023-01-15T09:18:54.152Z,100985.44
2023-01-15T09:19:56.987Z,100981.91
2023-01-15T09:20:59.761Z,100985.31
2023-01-15T09:22:02.511Z,100978.41
2023-01-15T09:23:05.597Z,100974.97
2023-01-15T09:24:08.522Z,100981.03
2023-01-15T09:25:11.225Z,100974.94
2023-01-15T09:26:46.153Z,100973.09
2023-01-15T09:27:49.947Z,100969.81
2023-01-15T09:28:53.020Z,100975.75
2023-01-15T09:29:56.650Z,100974.88
2023-01-15T09:30:59.787Z,100974.00
2023-01-15T09:32:02.766Z,100972.34
2023-01-15T09:33:05.501Z,100965.44
2023-01-15T09:34:08.506Z,100964.66
2023-01-15T09:35:11.276Z,100972.44
2023-01-15T09:36:27.932Z,100969.81
2023-01-15T09:37:30.744Z,100974.12
2023-01-15T09:38:35.221Z,100956.88
2023-01-15T09:39:39.037Z,100964.69
2023-01-15T09:40:50.425Z,100962.06
2023-01-15T09:42:24.244Z,100955.13
2023-01-15T09:43:37.460Z,100955.91
2023-01-15T09:45:02.820Z,100951.50
2023-01-15T09:46:12.450Z,100959.28
2023-01-15T09:47:17.940Z,100948.00
2023-01-15T09:48:47.561Z,100954.00
2023-01-15T09:50:18.612Z,100946.16
2023-01-15T09:51:39.575Z,100939.41
2023-01-15T09:53:01.576Z,100935.19
2023-01-15T09:54:29.144Z,100930.72
2023-01-15T09:55:37.178Z,100922.94
2023-01-15T09:56:40.066Z,100933.25
2023-01-15T09:57:43.953Z,100924.03
2023-01-15T09:58:46.980Z,100919.63
2023-01-15T09:59:52.466Z,100919.56
2023-01-15T10:00:55.575Z,100922.94
2023-01-15T10:02:00.645Z,100914.31
2023-01-15T10:03:25.492Z,100915.97
2023-01-15T10:04:43.409Z,100906.56
2023-01-15T10:06:10.659Z,100916.97
2023-01-15T10:07:30.728Z,100909.97
2023-01-15T10:08:40.870Z,100900.56
2023-01-15T10:09:43.643Z,100908.34
2023-01-15T10:10:57.175Z,100897.94
2023-01-15T10:12:26.136Z,100892.78
2023-01-15T10:13:37.299Z,100897.06
2023-01-15T10:14:55.386Z,100883.34
2023-01-15T10:15:58.722Z,100886.75
2023-01-15T10:17:01.589Z,100880.69
2023-01-15T10:18:08.212Z,100878.03
2023-01-15T10:19:11.242Z,100883.28
2023-01-15T10:20:23.499Z,100885.91
2023-01-15T10:21:35.231Z,100880.06
2023-01-15T10:23:12.344Z,100876.56
2023-01-15T10:24:24.335Z,100871.37
2023-01-15T10:25:35.737Z,100862.69
2023-01-15T10:26:59.456Z,100860.06
2023-01-15T10:28:13.631Z,100855.00
2023-01-15T10:29:16.823Z,100861.81
2023-01-15T10:30:43.938Z,100855.78
2023-01-15T10:31:51.483Z,100852.28
2023-01-15T10:33:03.063Z,100850.47
2023-01-15T10:34:08.861Z,100855.59
2023-01-15T10:35:21.183Z,100853.69
2023-01-15T10:36:38.848Z,100852.22
2023-01-15T10:37:47.172Z,100849.63
2023-01-15T10:39:16.642Z,100847.03
2023-01-15T10:40:28.382Z,100854.81
2023-01-15T10:41:59.168Z,100847.78
2023-01-15T10:43:10.593Z,100852.09
2023-01-15T10:44:19.669Z,100851.16
2023-01-15T10:45:29.977Z,100843.59
2023-01-15T10:46:38.508Z,100849.41
2023-01-15T10:47:44.109Z,100848.50
2023-01-15T10:48:51.179Z,100847.72
2023-01-15T10:49:54.057Z,100842.50
2023-01-15T10:51:02.602Z,100839.81
2023-01-15T10:52:19.475Z,100839.72
2023-01-15T10:53:29.311Z,100840.72
2023-01-15T10:54:38.252Z,100838.91
2023-01-15T10:56:08.945Z,100837.22
2023-01-15T10:57:28.206Z,100832.94
2023-01-15T10:58:46.871Z,100834.69
2023-01-15T11:00:00.767Z,100825.16
2023-01-15T11:01:06.158Z,100835.38
2023-01-15T11:02:27.718Z,100826.72
2023-01-15T11:03:40.628Z,100825.16
2023-01-15T11:04:45.592Z,100819.94
2023-01-15T11:05:49.875Z,100831.03
2023-01-15T11:06:52.551Z,100828.50
2023-01-15T11:08:34.279Z,100834.47
2023-01-15T11:09:23.645Z,100830.19
2023-01-15T11:10:28.696Z,100827.44
2023-01-15T11:11:57.005Z,100822.31
2023-01-15T11:13:40.637Z,100823.09
2023-01-15T11:15:04.255Z,100821.59
2023-01-15T11:16:34.479Z,100827.53
2023-01-15T11:18:04.242Z,100817.91
2023-01-15T11:19:35.404Z,100817.03
2023-01-15T11:20:46.446Z,100810.19
2023-01-15T11:21:52.886Z,100813.69
2023-01-15T11:22:57.813Z,100808.34
2023-01-15T11:24:01.118Z,100803.28
2023-01-15T11:25:04.254Z,100817.69
2023-01-15T11:26:07.498Z,100812.63
2023-01-15T11:27:16.585Z,100808.25
2023-01-15T11:28:34.925Z,100812.56
2023-01-15T11:29:37.938Z,100810.66
2023-01-15T11:30:41.984Z,100810.72
2023-01-15T11:31:45.039Z,100798.66
2023-01-15T11:32:55.741Z,100801.16
2023-01-15T11:34:02.891Z,100798.44
2023-01-15T11:35:08.471Z,100794.13
2023-01-15T11:36:25.843Z,100794.06
2023-01-15T11:37:30.242Z,100793.09
2023-01-15T11:38:53.519Z,100790.50
2023-01-15T11:40:10.165Z,100781.16
2023-01-15T11:41:47.085Z,100777.72
2023-01-15T11:43:10.623Z,100769.94
2023-01-15T11:44:33.482Z,100776.88
2023-01-15T11:46:11.774Z,100778.66
2023-01-15T11:47:36.510Z,100774.38
2023-01-15T11:49:06.867Z,100776.88
2023-01-15T11:50:36.680Z,100772.53
2023-01-15T11:51:48.825Z,100769.94
2023-01-15T11:52:55.739Z,100761.12
2023-01-15T11:54:07.761Z,100764.59
2023-01-15T11:55:13.614Z,100750.75
2023-01-15T11:56:27.320Z,100749.78
2023-01-15T11:57:33.064Z,100747.16
2023-01-15T11:58:58.651Z,100744.50
2023-01-15T12:00:04.355Z,100734.03
2023-01-15T12:01:07.544Z,100728.97
2023-01-15T12:02:30.788Z,100728.00
2023-01-15T12:03:36.688Z,100720.88
2023-01-15T12:04:56.990Z,100735.59
2023-01-15T12:06:05.560Z,100730.25
2023-01-15T12:07:14.477Z,100725.19
2023-01-15T12:08:32.588Z,100732.81
2023-01-15T12:10:02.627Z,100729.22
2023-01-15T12:11:31.399Z,100737.03
2023-01-15T12:12:39.804Z,100731.84
2023-01-15T12:13:51.715Z,100725.88
2023-01-15T12:15:00.125Z,100719.84
2023-01-15T12:16:24.347Z,100723.34
2023-01-15T12:17:52.373Z,100723.53
2023-01-15T12:19:01.603Z,100713.94
2023-01-15T12:20:12.186Z,100713.22
2023-01-15T12:21:30.113Z,100708.78
2023-01-15T12:23:01.094Z,100707.09
2023-01-15T12:24:22.568Z,100707.87
2023-01-15T12:26:02.533Z,100706.34
2023-01-15T12:27:17.050Z,100696.22
2023-01-15T12:28:31.714Z,100700.25
2023-01-15T12:29:49.127Z,100708.69
2023-01-15T12:31:03.395Z,100699.00
2023-01-15T12:32:18.621Z,100700.69
2023-01-15T12:33:46.079Z,100693.88
2023-01-15T12:35:32.932Z,100691.53
2023-01-15T12:36:44.807Z,100686.25
2023-01-15T12:37:53.883Z,100680.94
2023-01-15T12:39:01.374Z,100679.22
2023-01-15T12:40:22.123Z,100673.09
2023-01-15T12:41:55.029Z,100675.66
2023-01-15T12:43:17.816Z,100664.25
2023-01-15T12:46:57.904Z,100658.97
2023-01-15T12:48:22.820Z,100655.03
2023-01-15T12:49:51.686Z,100654.91
2023-01-15T12:51:33.299Z,100656.72
2023-01-15T12:53:07.458Z,100656.00
2023-01-15T12:54:17.608Z,100655.03
2023-01-15T12:55:28.067Z,100630.97
2023-01-15T12:56:57.053Z,100635.34
2023-01-15T12:58:07.322Z,100643.72
2023-01-15T12:59:36.017Z,100643.69
2023-01-15T13:00:45.578Z,100637.47
2023-01-15T13:02:00.668Z,100623.34
2023-01-15T13:03:29.732Z,100642.03
2023-01-15T13:04:40.993Z,100636.19
2023-01-15T13:05:51.594Z,100638.66
2023-01-15T13:07:37.063Z,100632.72
2023-01-15T13:08:46.907Z,100637.91
2023-01-15T13:10:03.016Z,100629.97
2023-01-15T13:11:15.287Z,100632.25